createdAt,value
2019-03-08T17:49:42.634Z,68.90
2019-03-08T17:52:16.178Z,69.00
2019-03-08T17:54:47.054Z,69.20
2019-03-08T17:57:20.637Z,69.40
2019-03-08T17:59:54.277Z,69.60
2019-03-08T18:02:40.419Z,69.60
2019-03-08T18:05:11.240Z,69.70
2019-03-08T18:07:42.093Z,69.90
2019-03-08T18:10:15.781Z,69.60
2019-03-08T18:12:49.528Z,69.80
2019-03-08T18:15:23.164Z,69.80
2019-03-08T18:18:02.727Z,70.20
2019-03-08T18:20:50.066Z,70.10
2019-03-08T18:23:27.058Z,70.10
2019-03-08T18:26:00.574Z,70.30
2019-03-08T18:28:32.527Z,70.40
2019-03-08T18:31:19.826Z,70.50
2019-03-08T18:33:56.498Z,70.70
2019-03-08T18:36:36.202Z,70.50
2019-03-08T18:39:13.802Z,70.80
2019-03-08T18:42:02.976Z,70.60
2019-03-08T18:44:39.762Z,70.60
2019-03-08T18:47:10.553Z,70.40
2019-03-08T18:49:57.688Z,71.40
2019-03-08T18:52:31.256Z,70.40
2019-03-08T18:55:14.445Z,70.40
2019-03-08T18:57:45.443Z,70.30
2019-03-08T19:00:16.349Z,70.30
2019-03-08T19:02:53.192Z,70.20
2019-03-08T19:05:35.774Z,70.40
2019-03-08T19:08:06.639Z,70.10
2019-03-08T19:10:40.502Z,70.30
2019-03-08T19:13:20.319Z,70.30
2019-03-08T19:15:54.053Z,70.40
2019-03-08T19:18:34.027Z,70.70
2019-03-08T19:21:04.824Z,71.30
2019-03-08T19:23:50.751Z,70.60
2019-03-08T19:26:24.371Z,70.60
2019-03-08T19:29:00.922Z,70.70
2019-03-08T19:31:31.785Z,70.60
2019-03-08T19:34:05.601Z,70.60
2019-03-08T19:36:42.567Z,70.60
2019-03-08T19:39:31.542Z,70.60
2019-03-08T19:42:02.410Z,70.60
2019-03-08T19:44:42.287Z,70.50
2019-03-08T19:47:19.834Z,70.40
2019-03-08T19:49:59.829Z,70.40
2019-03-08T19:52:36.846Z,70.50
2019-03-08T19:55:11.122Z,70.50
2019-03-08T19:57:54.300Z,70.40
2019-03-08T20:00:33.729Z,70.50
2019-03-08T20:03:07.015Z,70.60
2019-03-08T20:05:40.840Z,70.80
2019-03-08T20:08:30.179Z,70.80
2019-03-08T20:11:00.991Z,70.70
2019-03-08T20:13:37.884Z,70.40
2019-03-08T20:16:09.093Z,70.40
2019-03-08T20:18:56.364Z,70.50
2019-03-08T20:21:43.926Z,70.70
2019-03-08T20:24:29.938Z,71.30
2019-03-08T20:27:00.871Z,71.60
2019-03-08T20:29:34.836Z,71.70
2019-03-08T20:32:17.615Z,71.60
2019-03-08T20:34:53.991Z,71.40
2019-03-08T20:37:27.805Z,71.40
2019-03-08T20:40:11.144Z,71.10
2019-03-08T20:42:44.011Z,70.90
2019-03-08T20:45:14.737Z,70.40
2019-03-08T20:47:43.980Z,70.80
2019-03-08T20:50:13.306Z,69.80
2019-03-08T20:52:42.526Z,69.80
2019-03-08T20:55:11.776Z,69.80
2019-03-08T20:57:41.051Z,69.80
2019-03-08T21:00:15.424Z,69.90
2019-03-08T21:02:44.758Z,70.00
2019-03-08T21:05:13.959Z,70.00
2019-03-08T21:07:43.103Z,70.30
2019-03-08T21:10:13.888Z,70.30
2019-03-08T21:12:43.181Z,70.30
2019-03-08T21:15:13.751Z,70.30
2019-03-08T21:17:42.962Z,71.20
2019-03-08T21:20:14.825Z,70.30
2019-03-08T21:22:44.083Z,70.50
2019-03-08T21:25:15.258Z,70.60
2019-03-08T21:27:44.425Z,70.60
2019-03-08T21:30:18.336Z,70.60
2019-03-08T21:32:47.647Z,70.70
2019-03-08T21:35:16.934Z,70.80
2019-03-08T21:37:46.547Z,70.90
2019-03-08T21:40:15.709Z,70.90
2019-03-08T21:42:44.861Z,70.80
2019-03-08T21:45:15.463Z,70.70
2019-03-08T21:47:44.627Z,70.60
2019-03-08T21:50:17.823Z,70.60
2019-03-08T21:52:47.063Z,70.50
2019-03-08T21:55:16.219Z,70.40
2019-03-08T21:57:45.383Z,70.20
2019-03-08T22:00:17.406Z,70.00
2019-03-08T22:02:46.951Z,70.00
2019-03-08T22:05:17.746Z,70.00
2019-03-08T22:07:46.939Z,70.00
2019-03-08T22:10:17.854Z,70.80
2019-03-08T22:12:47.100Z,70.10
2019-03-08T22:15:16.259Z,70.20
2019-03-08T22:17:45.499Z,70.10
2019-03-08T22:20:14.646Z,70.20
2019-03-08T22:22:43.860Z,70.30
2019-03-08T22:25:14.085Z,70.30
2019-03-08T22:27:43.520Z,70.30
2019-03-08T22:30:18.900Z,70.10
2019-03-08T22:32:48.070Z,70.10
2019-03-08T22:35:17.240Z,69.90
2019-03-08T22:37:46.514Z,69.90
2019-03-08T22:40:15.707Z,69.80
2019-03-08T22:42:44.924Z,69.60
2019-03-08T22:45:14.124Z,69.70
2019-03-08T22:47:43.330Z,69.80
2019-03-08T22:50:14.707Z,69.70
2019-03-08T22:52:43.870Z,69.60
2019-03-08T22:55:14.389Z,69.60
2019-03-08T22:57:44.576Z,69.60
2019-03-08T23:00:55.074Z,69.50
2019-03-08T23:03:24.927Z,69.60
2019-03-08T23:05:54.088Z,69.60
2019-03-08T23:08:23.219Z,69.50
2019-03-08T23:10:52.390Z,69.40
2019-03-08T23:13:21.531Z,69.50
2019-03-08T23:15:50.690Z,69.40
2019-03-08T23:18:19.866Z,69.10
2019-03-08T23:20:50.088Z,69.10
2019-03-08T23:23:19.302Z,68.90
2019-03-08T23:25:48.468Z,69.00
2019-03-08T23:28:19.242Z,68.70
2019-03-08T23:30:50.054Z,68.70
2019-03-08T23:33:19.216Z,68.70
2019-03-08T23:35:48.493Z,68.70
2019-03-08T23:38:17.704Z,68.70
2019-03-08T23:40:46.859Z,68.60
2019-03-08T23:43:16.051Z,68.70
2019-03-08T23:45:45.178Z,68.60
2019-03-08T23:48:14.373Z,68.60
2019-03-08T23:50:43.525Z,68.50
2019-03-08T23:53:13.750Z,68.50
2019-03-08T23:55:42.950Z,68.70
2019-03-08T23:58:12.118Z,68.50
